sensor_id;sensor_type;location;lat;lon;timestamp;P1;durP1;ratioP1;P2;durP2;ratioP2
22973;SDS011;11653;50.848;4.584;2023-04-21T00:00:49;21.83;;;15.07;;
22973;SDS011;11653;50.848;4.584;2023-04-21T00:03:16;22.30;;;15.27;;
22973;SDS011;11653;50.848;4.584;2023-04-21T00:05:44;23.27;;;15.60;;
22973;SDS011;11653;50.848;4.584;2023-04-21T00:08:10;20.00;;;13.90;;
22973;SDS011;11653;50.848;4.584;2023-04-21T00:10:35;20.97;;;14.23;;
22973;SDS011;11653;50.848;4.584;2023-04-21T00:13:01;23.47;;;15.13;;
22973;SDS011;11653;50.848;4.584;2023-04-21T00:15:27;23.10;;;15.13;;
22973;SDS011;11653;50.848;4.584;2023-04-21T00:17:52;20.23;;;14.50;;
22973;SDS011;11653;50.848;4.584;2023-04-21T00:20:18;22.30;;;14.50;;
22973;SDS011;11653;50.848;4.584;2023-04-21T00:22:44;21.63;;;14.83;;
22973;SDS011;11653;50.848;4.584;2023-04-21T00:25:09;20.27;;;14.53;;
22973;SDS011;11653;50.848;4.584;2023-04-21T00:27:35;20.40;;;14.67;;
22973;SDS011;11653;50.848;4.584;2023-04-21T00:30:01;22.47;;;14.63;;
22973;SDS011;11653;50.848;4.584;2023-04-21T00:32:26;22.13;;;15.17;;
22973;SDS011;11653;50.848;4.584;2023-04-21T00:34:52;20.87;;;15.10;;
22973;SDS011;11653;50.848;4.584;2023-04-21T00:37:18;20.87;;;14.93;;
22973;SDS011;11653;50.848;4.584;2023-04-21T00:39:43;23.07;;;15.00;;
22973;SDS011;11653;50.848;4.584;2023-04-21T00:42:09;22.20;;;15.60;;
22973;SDS011;11653;50.848;4.584;2023-04-21T00:44:35;24.07;;;17.13;;
22973;SDS011;11653;50.848;4.584;2023-04-21T00:47:00;21.27;;;15.83;;
22973;SDS011;11653;50.848;4.584;2023-04-21T00:49:26;24.77;;;17.20;;
22973;SDS011;11653;50.848;4.584;2023-04-21T00:51:52;24.27;;;17.10;;
22973;SDS011;11653;50.848;4.584;2023-04-21T00:54:19;27.20;;;17.73;;
22973;SDS011;11653;50.848;4.584;2023-04-21T00:56:48;24.97;;;17.27;;
22973;SDS011;11653;50.848;4.584;2023-04-21T00:59:13;26.00;;;17.67;;
22973;SDS011;11653;50.848;4.584;2023-04-21T01:01:39;26.57;;;18.37;;
22973;SDS011;11653;50.848;4.584;2023-04-21T01:04:05;25.57;;;18.17;;
22973;SDS011;11653;50.848;4.584;2023-04-21T01:06:31;30.40;;;19.07;;
22973;SDS011;11653;50.848;4.584;2023-04-21T01:08:58;28.17;;;19.70;;
22973;SDS011;11653;50.848;4.584;2023-04-21T01:11:24;32.80;;;20.73;;
22973;SDS011;11653;50.848;4.584;2023-04-21T01:13:53;30.20;;;20.83;;
22973;SDS011;11653;50.848;4.584;2023-04-21T01:16:20;31.50;;;21.50;;
22973;SDS011;11653;50.848;4.584;2023-04-21T01:18:47;31.27;;;21.70;;
22973;SDS011;11653;50.848;4.584;2023-04-21T01:21:17;31.60;;;22.80;;
22973;SDS011;11653;50.848;4.584;2023-04-21T01:23:44;33.77;;;22.67;;
22973;SDS011;11653;50.848;4.584;2023-04-21T01:26:10;33.67;;;23.27;;
22973;SDS011;11653;50.848;4.584;2023-04-21T01:28:36;32.67;;;22.70;;
22973;SDS011;11653;50.848;4.584;2023-04-21T01:31:02;34.40;;;23.63;;
22973;SDS011;11653;50.848;4.584;2023-04-21T01:33:28;38.03;;;25.37;;
22973;SDS011;11653;50.848;4.584;2023-04-21T01:35:55;38.97;;;25.57;;
22973;SDS011;11653;50.848;4.584;2023-04-21T01:38:21;37.70;;;24.87;;
22973;SDS011;11653;50.848;4.584;2023-04-21T01:40:48;37.93;;;25.00;;
22973;SDS011;11653;50.848;4.584;2023-04-21T01:43:17;41.23;;;26.00;;
22973;SDS011;11653;50.848;4.584;2023-04-21T01:45:45;41.17;;;26.47;;
22973;SDS011;11653;50.848;4.584;2023-04-21T01:48:12;44.23;;;28.57;;
22973;SDS011;11653;50.848;4.584;2023-04-21T01:50:38;43.17;;;28.00;;
22973;SDS011;11653;50.848;4.584;2023-04-21T01:53:03;44.10;;;27.50;;
22973;SDS011;11653;50.848;4.584;2023-04-21T01:55:29;46.90;;;28.03;;
22973;SDS011;11653;50.848;4.584;2023-04-21T01:57:55;43.43;;;27.60;;
22973;SDS011;11653;50.848;4.584;2023-04-21T02:00:24;47.13;;;29.57;;
22973;SDS011;11653;50.848;4.584;2023-04-21T02:02:50;44.43;;;28.07;;
22973;SDS011;11653;50.848;4.584;2023-04-21T02:05:16;46.83;;;28.50;;
22973;SDS011;11653;50.848;4.584;2023-04-21T02:07:42;47.73;;;29.13;;
22973;SDS011;11653;50.848;4.584;2023-04-21T02:10:08;50.87;;;29.83;;
22973;SDS011;11653;50.848;4.584;2023-04-21T02:12:35;48.33;;;28.77;;
22973;SDS011;11653;50.848;4.584;2023-04-21T02:15:00;49.70;;;30.03;;
22973;SDS011;11653;50.848;4.584;2023-04-21T02:17:26;49.03;;;28.53;;
22973;SDS011;11653;50.848;4.584;2023-04-21T02:19:52;48.57;;;29.73;;
22973;SDS011;11653;50.848;4.584;2023-04-21T02:22:17;47.97;;;29.47;;
22973;SDS011;11653;50.848;4.584;2023-04-21T02:24:43;47.03;;;29.43;;
22973;SDS011;11653;50.848;4.584;2023-04-21T02:27:09;47.27;;;30.67;;
22973;SDS011;11653;50.848;4.584;2023-04-21T02:29:34;46.73;;;28.83;;
22973;SDS011;11653;50.848;4.584;2023-04-21T02:32:00;50.90;;;30.97;;
22973;SDS011;11653;50.848;4.584;2023-04-21T02:34:26;51.13;;;30.87;;
22973;SDS011;11653;50.848;4.584;2023-04-21T02:36:51;53.70;;;32.30;;
22973;SDS011;11653;50.848;4.584;2023-04-21T02:39:17;53.73;;;30.93;;
22973;SDS011;11653;50.848;4.584;2023-04-21T02:41:42;50.63;;;30.83;;
22973;SDS011;11653;50.848;4.584;2023-04-21T02:44:08;53.97;;;32.30;;
22973;SDS011;11653;50.848;4.584;2023-04-21T02:46:34;53.93;;;31.07;;
22973;SDS011;11653;50.848;4.584;2023-04-21T02:48:59;48.60;;;30.20;;
22973;SDS011;11653;50.848;4.584;2023-04-21T02:51:25;53.83;;;32.63;;
22973;SDS011;11653;50.848;4.584;2023-04-21T02:53:51;53.03;;;32.30;;
22973;SDS011;11653;50.848;4.584;2023-04-21T02:56:16;57.47;;;33.40;;
22973;SDS011;11653;50.848;4.584;2023-04-21T02:58:42;55.73;;;33.33;;
22973;SDS011;11653;50.848;4.584;2023-04-21T03:01:08;53.83;;;32.33;;
22973;SDS011;11653;50.848;4.584;2023-04-21T03:03:33;51.63;;;32.37;;
22973;SDS011;11653;50.848;4.584;2023-04-21T03:06:01;52.27;;;31.93;;
22973;SDS011;11653;50.848;4.584;2023-04-21T03:08:28;50.50;;;30.57;;
22973;SDS011;11653;50.848;4.584;2023-04-21T03:10:54;54.17;;;31.90;;
22973;SDS011;11653;50.848;4.584;2023-04-21T03:13:19;51.30;;;31.10;;
22973;SDS011;11653;50.848;4.584;2023-04-21T03:15:45;54.17;;;32.93;;
22973;SDS011;11653;50.848;4.584;2023-04-21T03:18:11;53.83;;;32.50;;
22973;SDS011;11653;50.848;4.584;2023-04-21T03:20:37;56.77;;;34.13;;
22973;SDS011;11653;50.848;4.584;2023-04-21T03:23:02;55.47;;;31.77;;
22973;SDS011;11653;50.848;4.584;2023-04-21T03:25:28;56.17;;;32.03;;
22973;SDS011;11653;50.848;4.584;2023-04-21T03:27:54;57.07;;;32.40;;
22973;SDS011;11653;50.848;4.584;2023-04-21T03:30:20;54.93;;;31.27;;
22973;SDS011;11653;50.848;4.584;2023-04-21T03:32:48;56.77;;;33.83;;
22973;SDS011;11653;50.848;4.584;2023-04-21T03:35:14;54.37;;;32.63;;
22973;SDS011;11653;50.848;4.584;2023-04-21T03:37:40;55.10;;;32.47;;
22973;SDS011;11653;50.848;4.584;2023-04-21T03:40:06;58.10;;;33.30;;
22973;SDS011;11653;50.848;4.584;2023-04-21T03:42:35;53.37;;;31.63;;
22973;SDS011;11653;50.848;4.584;2023-04-21T03:45:01;56.63;;;33.87;;
22973;SDS011;11653;50.848;4.584;2023-04-21T03:47:31;50.33;;;31.03;;
22973;SDS011;11653;50.848;4.584;2023-04-21T03:49:57;56.33;;;32.50;;
22973;SDS011;11653;50.848;4.584;2023-04-21T03:52:23;56.77;;;33.43;;
22973;SDS011;11653;50.848;4.584;2023-04-21T03:54:49;56.73;;;32.60;;
22973;SDS011;11653;50.848;4.584;2023-04-21T03:57:15;53.07;;;31.63;;
22973;SDS011;11653;50.848;4.584;2023-04-21T03:59:41;56.07;;;31.60;;
22973;SDS011;11653;50.848;4.584;2023-04-21T04:02:07;54.63;;;32.60;;
22973;SDS011;11653;50.848;4.584;2023-04-21T04:04:33;54.63;;;31.30;;
22973;SDS011;11653;50.848;4.584;2023-04-21T04:07:00;59.30;;;33.37;;
22973;SDS011;11653;50.848;4.584;2023-04-21T04:09:26;55.27;;;32.00;;
22973;SDS011;11653;50.848;4.584;2023-04-21T04:11:51;57.60;;;32.87;;
22973;SDS011;11653;50.848;4.584;2023-04-21T04:14:17;61.77;;;34.73;;
22973;SDS011;11653;50.848;4.584;2023-04-21T04:16:43;60.40;;;33.10;;
22973;SDS011;11653;50.848;4.584;2023-04-21T04:19:09;58.33;;;33.53;;
22973;SDS011;11653;50.848;4.584;2023-04-21T04:21:35;58.77;;;33.57;;
22973;SDS011;11653;50.848;4.584;2023-04-21T04:24:01;55.67;;;32.40;;
22973;SDS011;11653;50.848;4.584;2023-04-21T04:26:29;54.10;;;31.80;;
22973;SDS011;11653;50.848;4.584;2023-04-21T04:28:57;55.70;;;32.37;;
22973;SDS011;11653;50.848;4.584;2023-04-21T04:31:25;57.97;;;31.83;;
22973;SDS011;11653;50.848;4.584;2023-04-21T04:33:51;53.73;;;30.40;;
22973;SDS011;11653;50.848;4.584;2023-04-21T04:36:16;51.77;;;31.70;;
22973;SDS011;11653;50.848;4.584;2023-04-21T04:38:42;56.73;;;32.37;;
22973;SDS011;11653;50.848;4.584;2023-04-21T04:41:09;54.90;;;31.03;;
22973;SDS011;11653;50.848;4.584;2023-04-21T04:43:36;56.23;;;32.33;;
22973;SDS011;11653;50.848;4.584;2023-04-21T04:46:03;58.27;;;31.17;;
22973;SDS011;11653;50.848;4.584;2023-04-21T04:48:29;50.30;;;30.50;;
22973;SDS011;11653;50.848;4.584;2023-04-21T04:50:55;53.77;;;31.60;;
22973;SDS011;11653;50.848;4.584;2023-04-21T04:53:21;54.87;;;31.17;;
22973;SDS011;11653;50.848;4.584;2023-04-21T04:55:46;53.47;;;30.93;;
22973;SDS011;11653;50.848;4.584;2023-04-21T04:58:12;57.00;;;31.70;;
22973;SDS011;11653;50.848;4.584;2023-04-21T05:00:38;52.97;;;30.93;;
22973;SDS011;11653;50.848;4.584;2023-04-21T05:03:04;55.83;;;30.83;;
22973;SDS011;11653;50.848;4.584;2023-04-21T05:05:30;59.13;;;30.93;;
22973;SDS011;11653;50.848;4.584;2023-04-21T05:07:55;54.17;;;31.20;;
22973;SDS011;11653;50.848;4.584;2023-04-21T05:10:21;56.57;;;30.30;;
22973;SDS011;11653;50.848;4.584;2023-04-21T05:12:47;54.20;;;29.90;;
22973;SDS011;11653;50.848;4.584;2023-04-21T05:15:13;57.70;;;31.87;;
22973;SDS011;11653;50.848;4.584;2023-04-21T05:17:39;57.87;;;32.37;;
22973;SDS011;11653;50.848;4.584;2023-04-21T05:20:05;53.13;;;30.03;;
22973;SDS011;11653;50.848;4.584;2023-04-21T05:22:31;59.87;;;31.90;;
22973;SDS011;11653;50.848;4.584;2023-04-21T05:25:01;57.63;;;30.87;;
22973;SDS011;11653;50.848;4.584;2023-04-21T05:27:27;61.50;;;32.90;;
22973;SDS011;11653;50.848;4.584;2023-04-21T05:29:52;51.80;;;28.80;;
22973;SDS011;11653;50.848;4.584;2023-04-21T05:32:19;55.33;;;29.33;;
22973;SDS011;11653;50.848;4.584;2023-04-21T05:34:45;52.70;;;30.20;;
22973;SDS011;11653;50.848;4.584;2023-04-21T05:37:10;55.10;;;29.83;;
22973;SDS011;11653;50.848;4.584;2023-04-21T05:39:36;48.03;;;28.03;;
22973;SDS011;11653;50.848;4.584;2023-04-21T05:42:02;48.50;;;27.83;;
22973;SDS011;11653;50.848;4.584;2023-04-21T05:44:27;48.90;;;27.07;;
22973;SDS011;11653;50.848;4.584;2023-04-21T05:46:53;47.33;;;27.47;;
22973;SDS011;11653;50.848;4.584;2023-04-21T05:49:19;43.83;;;25.10;;
22973;SDS011;11653;50.848;4.584;2023-04-21T05:51:45;41.03;;;24.43;;
22973;SDS011;11653;50.848;4.584;2023-04-21T05:54:10;42.57;;;25.70;;
22973;SDS011;11653;50.848;4.584;2023-04-21T05:56:36;40.40;;;24.87;;
22973;SDS011;11653;50.848;4.584;2023-04-21T05:59:02;41.37;;;24.93;;
22973;SDS011;11653;50.848;4.584;2023-04-21T06:01:28;40.83;;;22.73;;
22973;SDS011;11653;50.848;4.584;2023-04-21T06:03:53;38.67;;;24.07;;
22973;SDS011;11653;50.848;4.584;2023-04-21T06:06:19;37.10;;;21.63;;
22973;SDS011;11653;50.848;4.584;2023-04-21T06:08:44;35.00;;;22.13;;
22973;SDS011;11653;50.848;4.584;2023-04-21T06:11:10;39.50;;;23.37;;
22973;SDS011;11653;50.848;4.584;2023-04-21T06:13:36;35.53;;;22.90;;
22973;SDS011;11653;50.848;4.584;2023-04-21T06:16:01;34.87;;;23.53;;
22973;SDS011;11653;50.848;4.584;2023-04-21T06:18:27;36.00;;;22.93;;
22973;SDS011;11653;50.848;4.584;2023-04-21T06:20:53;38.60;;;24.80;;
22973;SDS011;11653;50.848;4.584;2023-04-21T06:23:19;30.70;;;20.97;;
22973;SDS011;11653;50.848;4.584;2023-04-21T06:25:46;30.83;;;22.10;;
22973;SDS011;11653;50.848;4.584;2023-04-21T06:28:12;32.20;;;21.27;;
22973;SDS011;11653;50.848;4.584;2023-04-21T06:30:37;26.53;;;20.20;;
22973;SDS011;11653;50.848;4.584;2023-04-21T06:33:03;30.70;;;21.20;;
22973;SDS011;11653;50.848;4.584;2023-04-21T06:35:30;29.47;;;20.40;;
22973;SDS011;11653;50.848;4.584;2023-04-21T06:37:56;27.07;;;19.57;;
22973;SDS011;11653;50.848;4.584;2023-04-21T06:40:21;29.30;;;19.80;;
22973;SDS011;11653;50.848;4.584;2023-04-21T06:42:47;29.77;;;20.20;;
22973;SDS011;11653;50.848;4.584;2023-04-21T06:45:13;25.97;;;19.80;;
22973;SDS011;11653;50.848;4.584;2023-04-21T06:47:38;26.73;;;20.53;;
22973;SDS011;11653;50.848;4.584;2023-04-21T06:50:04;35.23;;;21.63;;
22973;SDS011;11653;50.848;4.584;2023-04-21T06:52:31;26.07;;;19.83;;
22973;SDS011;11653;50.848;4.584;2023-04-21T06:54:57;25.00;;;19.77;;
22973;SDS011;11653;50.848;4.584;2023-04-21T06:57:22;27.40;;;19.47;;
22973;SDS011;11653;50.848;4.584;2023-04-21T06:59:48;23.33;;;18.63;;
22973;SDS011;11653;50.848;4.584;2023-04-21T07:02:13;24.60;;;19.17;;
22973;SDS011;11653;50.848;4.584;2023-04-21T07:04:39;23.83;;;18.27;;
22973;SDS011;11653;50.848;4.584;2023-04-21T07:07:05;23.17;;;18.03;;
22973;SDS011;11653;50.848;4.584;2023-04-21T07:09:30;22.77;;;18.27;;
22973;SDS011;11653;50.848;4.584;2023-04-21T07:11:58;22.90;;;17.23;;
22973;SDS011;11653;50.848;4.584;2023-04-21T07:14:24;23.70;;;17.10;;
22973;SDS011;11653;50.848;4.584;2023-04-21T07:16:50;22.13;;;16.67;;
22973;SDS011;11653;50.848;4.584;2023-04-21T07:19:15;25.03;;;17.17;;
22973;SDS011;11653;50.848;4.584;2023-04-21T07:21:41;22.33;;;17.13;;
22973;SDS011;11653;50.848;4.584;2023-04-21T07:24:07;17.90;;;14.47;;
22973;SDS011;11653;50.848;4.584;2023-04-21T07:26:33;18.77;;;15.17;;
22973;SDS011;11653;50.848;4.584;2023-04-21T07:28:58;18.63;;;14.63;;
22973;SDS011;11653;50.848;4.584;2023-04-21T07:31:24;19.67;;;15.30;;
22973;SDS011;11653;50.848;4.584;2023-04-21T07:33:50;19.93;;;13.87;;
22973;SDS011;11653;50.848;4.584;2023-04-21T07:36:15;18.07;;;14.30;;
22973;SDS011;11653;50.848;4.584;2023-04-21T07:38:41;15.40;;;13.30;;
22973;SDS011;11653;50.848;4.584;2023-04-21T07:41:10;17.30;;;13.17;;
22973;SDS011;11653;50.848;4.584;2023-04-21T07:43:37;17.33;;;12.40;;
22973;SDS011;11653;50.848;4.584;2023-04-21T07:46:04;15.53;;;13.00;;
22973;SDS011;11653;50.848;4.584;2023-04-21T07:48:30;59.20;;;41.43;;
22973;SDS011;11653;50.848;4.584;2023-04-21T07:50:56;20.00;;;15.53;;
22973;SDS011;11653;50.848;4.584;2023-04-21T07:53:25;15.87;;;12.53;;
22973;SDS011;11653;50.848;4.584;2023-04-21T07:55:51;13.97;;;11.97;;
22973;SDS011;11653;50.848;4.584;2023-04-21T07:58:18;12.67;;;10.73;;
22973;SDS011;11653;50.848;4.584;2023-04-21T08:00:43;14.80;;;11.00;;
22973;SDS011;11653;50.848;4.584;2023-04-21T08:03:09;14.30;;;12.03;;
22973;SDS011;11653;50.848;4.584;2023-04-21T08:05:37;13.57;;;11.50;;
22973;SDS011;11653;50.848;4.584;2023-04-21T08:08:03;14.90;;;11.47;;
22973;SDS011;11653;50.848;4.584;2023-04-21T08:10:29;15.90;;;11.17;;
22973;SDS011;11653;50.848;4.584;2023-04-21T08:12:55;13.27;;;11.13;;
22973;SDS011;11653;50.848;4.584;2023-04-21T08:15:21;13.77;;;11.70;;
22973;SDS011;11653;50.848;4.584;2023-04-21T08:17:46;13.73;;;10.97;;
22973;SDS011;11653;50.848;4.584;2023-04-21T08:20:12;13.70;;;11.20;;
22973;SDS011;11653;50.848;4.584;2023-04-21T08:22:38;14.60;;;11.37;;
22973;SDS011;11653;50.848;4.584;2023-04-21T08:25:04;12.27;;;10.80;;
22973;SDS011;11653;50.848;4.584;2023-04-21T08:27:30;13.43;;;11.10;;
22973;SDS011;11653;50.848;4.584;2023-04-21T08:29:55;14.03;;;11.47;;
22973;SDS011;11653;50.848;4.584;2023-04-21T08:32:21;17.23;;;12.37;;
22973;SDS011;11653;50.848;4.584;2023-04-21T08:34:50;41.33;;;30.97;;
22973;SDS011;11653;50.848;4.584;2023-04-21T08:37:17;18.33;;;11.67;;
22973;SDS011;11653;50.848;4.584;2023-04-21T08:39:44;13.40;;;11.33;;
22973;SDS011;11653;50.848;4.584;2023-04-21T08:42:11;13.33;;;11.33;;
22973;SDS011;11653;50.848;4.584;2023-04-21T08:44:41;12.97;;;11.13;;
22973;SDS011;11653;50.848;4.584;2023-04-21T08:47:11;14.53;;;11.07;;
22973;SDS011;11653;50.848;4.584;2023-04-21T08:49:38;12.43;;;11.00;;
22973;SDS011;11653;50.848;4.584;2023-04-21T08:52:05;13.00;;;10.83;;
22973;SDS011;11653;50.848;4.584;2023-04-21T08:54:31;13.90;;;10.97;;
22973;SDS011;11653;50.848;4.584;2023-04-21T08:56:58;13.60;;;10.90;;
22973;SDS011;11653;50.848;4.584;2023-04-21T08:59:24;13.20;;;10.83;;
22973;SDS011;11653;50.848;4.584;2023-04-21T09:04:45;13.43;;;11.10;;
22973;SDS011;11653;50.848;4.584;2023-04-21T09:07:12;12.03;;;10.70;;
22973;SDS011;11653;50.848;4.584;2023-04-21T09:09:58;10.80;;;9.70;;
22973;SDS011;11653;50.848;4.584;2023-04-21T09:12:27;12.57;;;10.63;;
22973;SDS011;11653;50.848;4.584;2023-04-21T09:14:54;14.23;;;10.60;;
22973;SDS011;11653;50.848;4.584;2023-04-21T09:17:26;14.47;;;10.40;;
22973;SDS011;11653;50.848;4.584;2023-04-21T09:19:56;13.57;;;10.10;;
22973;SDS011;11653;50.848;4.584;2023-04-21T09:22:25;12.27;;;10.57;;
22973;SDS011;11653;50.848;4.584;2023-04-21T09:24:56;13.53;;;10.50;;
22973;SDS011;11653;50.848;4.584;2023-04-21T09:27:23;10.97;;;9.77;;
22973;SDS011;11653;50.848;4.584;2023-04-21T09:29:49;12.97;;;10.40;;
22973;SDS011;11653;50.848;4.584;2023-04-21T09:32:16;11.13;;;9.70;;
22973;SDS011;11653;50.848;4.584;2023-04-21T09:34:43;11.83;;;10.23;;
22973;SDS011;11653;50.848;4.584;2023-04-21T09:37:10;12.03;;;9.63;;
22973;SDS011;11653;50.848;4.584;2023-04-21T09:39:37;10.60;;;9.43;;
22973;SDS011;11653;50.848;4.584;2023-04-21T09:42:03;12.13;;;10.83;;
22973;SDS011;11653;50.848;4.584;2023-04-21T09:44:29;13.77;;;9.60;;
22973;SDS011;11653;50.848;4.584;2023-04-21T09:46:59;12.47;;;10.20;;
22973;SDS011;11653;50.848;4.584;2023-04-21T09:49:28;12.70;;;9.83;;
22973;SDS011;11653;50.848;4.584;2023-04-21T09:51:59;10.93;;;9.17;;
22973;SDS011;11653;50.848;4.584;2023-04-21T09:54:30;13.47;;;9.30;;
22973;SDS011;11653;50.848;4.584;2023-04-21T09:57:00;10.53;;;9.40;;
22973;SDS011;11653;50.848;4.584;2023-04-21T09:59:32;11.57;;;9.53;;
22973;SDS011;11653;50.848;4.584;2023-04-21T10:02:01;10.40;;;9.07;;
22973;SDS011;11653;50.848;4.584;2023-04-21T10:04:29;12.27;;;10.23;;
22973;SDS011;11653;50.848;4.584;2023-04-21T10:06:58;11.47;;;10.27;;
22973;SDS011;11653;50.848;4.584;2023-04-21T10:09:26;11.20;;;9.83;;
22973;SDS011;11653;50.848;4.584;2023-04-21T10:11:57;13.03;;;10.70;;
22973;SDS011;11653;50.848;4.584;2023-04-21T10:14:25;13.30;;;10.20;;
22973;SDS011;11653;50.848;4.584;2023-04-21T10:16:54;13.43;;;10.23;;
22973;SDS011;11653;50.848;4.584;2023-04-21T10:19:22;12.10;;;9.97;;
22973;SDS011;11653;50.848;4.584;2023-04-21T10:21:49;11.00;;;8.63;;
22973;SDS011;11653;50.848;4.584;2023-04-21T10:24:15;10.43;;;8.70;;
22973;SDS011;11653;50.848;4.584;2023-04-21T10:26:40;10.23;;;8.53;;
22973;SDS011;11653;50.848;4.584;2023-04-21T10:29:06;13.10;;;9.87;;
22973;SDS011;11653;50.848;4.584;2023-04-21T10:31:34;10.50;;;9.07;;
22973;SDS011;11653;50.848;4.584;2023-04-21T10:37:19;10.03;;;8.40;;
22973;SDS011;11653;50.848;4.584;2023-04-21T10:39:24;11.57;;;9.10;;
22973;SDS011;11653;50.848;4.584;2023-04-21T10:41:52;14.77;;;9.20;;
22973;SDS011;11653;50.848;4.584;2023-04-21T10:44:20;10.60;;;9.00;;
22973;SDS011;11653;50.848;4.584;2023-04-21T10:46:46;9.43;;;8.43;;
22973;SDS011;11653;50.848;4.584;2023-04-21T10:49:26;14.93;;;9.20;;
22973;SDS011;11653;50.848;4.584;2023-04-21T10:54:23;12.80;;;10.83;;
22973;SDS011;11653;50.848;4.584;2023-04-21T10:56:50;11.33;;;9.90;;
22973;SDS011;11653;50.848;4.584;2023-04-21T10:59:17;9.57;;;8.13;;
22973;SDS011;11653;50.848;4.584;2023-04-21T11:01:44;9.53;;;8.13;;
22973;SDS011;11653;50.848;4.584;2023-04-21T11:04:13;10.43;;;8.87;;
22973;SDS011;11653;50.848;4.584;2023-04-21T11:06:40;13.90;;;9.30;;
22973;SDS011;11653;50.848;4.584;2023-04-21T11:09:06;10.47;;;8.20;;
22973;SDS011;11653;50.848;4.584;2023-04-21T11:11:31;12.30;;;7.33;;
22973;SDS011;11653;50.848;4.584;2023-04-21T11:14:00;9.93;;;8.37;;
22973;SDS011;11653;50.848;4.584;2023-04-21T11:16:26;9.53;;;7.50;;
22973;SDS011;11653;50.848;4.584;2023-04-21T11:18:52;11.20;;;8.00;;
22973;SDS011;11653;50.848;4.584;2023-04-21T11:21:20;12.03;;;7.90;;
22973;SDS011;11653;50.848;4.584;2023-04-21T11:23:52;10.60;;;7.70;;
22973;SDS011;11653;50.848;4.584;2023-04-21T11:26:28;11.70;;;9.40;;
22973;SDS011;11653;50.848;4.584;2023-04-21T11:28:55;13.97;;;10.50;;
22973;SDS011;11653;50.848;4.584;2023-04-21T11:31:26;12.23;;;10.03;;
22973;SDS011;11653;50.848;4.584;2023-04-21T11:33:54;11.70;;;8.73;;
22973;SDS011;11653;50.848;4.584;2023-04-21T11:36:20;10.33;;;6.67;;
22973;SDS011;11653;50.848;4.584;2023-04-21T11:38:46;11.03;;;7.53;;
22973;SDS011;11653;50.848;4.584;2023-04-21T11:41:13;11.13;;;7.53;;
22973;SDS011;11653;50.848;4.584;2023-04-21T11:43:46;9.47;;;8.13;;
22973;SDS011;11653;50.848;4.584;2023-04-21T11:46:15;15.43;;;8.47;;
22973;SDS011;11653;50.848;4.584;2023-04-21T11:48:56;11.50;;;7.80;;
22973;SDS011;11653;50.848;4.584;2023-04-21T11:51:36;9.70;;;7.50;;
22973;SDS011;11653;50.848;4.584;2023-04-21T11:54:06;9.60;;;7.70;;
22973;SDS011;11653;50.848;4.584;2023-04-21T11:56:37;9.93;;;7.97;;
22973;SDS011;11653;50.848;4.584;2023-04-21T11:59:11;11.07;;;9.20;;
22973;SDS011;11653;50.848;4.584;2023-04-21T12:04:17;11.03;;;8.83;;
22973;SDS011;11653;50.848;4.584;2023-04-21T12:06:53;10.70;;;8.73;;
22973;SDS011;11653;50.848;4.584;2023-04-21T12:09:23;10.43;;;8.57;;
22973;SDS011;11653;50.848;4.584;2023-04-21T12:11:53;12.17;;;9.57;;
22973;SDS011;11653;50.848;4.584;2023-04-21T12:14:20;13.97;;;9.27;;
22973;SDS011;11653;50.848;4.584;2023-04-21T12:16:48;11.60;;;9.80;;
22973;SDS011;11653;50.848;4.584;2023-04-21T12:19:33;14.10;;;9.50;;
22973;SDS011;11653;50.848;4.584;2023-04-21T12:22:21;12.73;;;10.33;;
22973;SDS011;11653;50.848;4.584;2023-04-21T12:24:48;12.33;;;8.70;;
22973;SDS011;11653;50.848;4.584;2023-04-21T12:27:14;13.67;;;9.33;;
22973;SDS011;11653;50.848;4.584;2023-04-21T12:29:40;10.90;;;8.97;;
22973;SDS011;11653;50.848;4.584;2023-04-21T12:32:07;11.83;;;9.47;;
22973;SDS011;11653;50.848;4.584;2023-04-21T12:34:33;15.57;;;9.77;;
22973;SDS011;11653;50.848;4.584;2023-04-21T12:36:59;12.87;;;9.63;;
22973;SDS011;11653;50.848;4.584;2023-04-21T12:39:25;13.40;;;10.03;;
22973;SDS011;11653;50.848;4.584;2023-04-21T12:41:50;13.37;;;8.87;;
22973;SDS011;11653;50.848;4.584;2023-04-21T12:44:16;11.20;;;8.30;;
22973;SDS011;11653;50.848;4.584;2023-04-21T12:46:42;12.73;;;9.37;;
22973;SDS011;11653;50.848;4.584;2023-04-21T12:49:07;10.47;;;8.40;;
22973;SDS011;11653;50.848;4.584;2023-04-21T12:51:35;11.47;;;9.00;;
22973;SDS011;11653;50.848;4.584;2023-04-21T12:54:00;10.90;;;7.83;;
22973;SDS011;11653;50.848;4.584;2023-04-21T12:56:26;12.37;;;7.97;;
22973;SDS011;11653;50.848;4.584;2023-04-21T12:58:52;8.87;;;5.90;;
22973;SDS011;11653;50.848;4.584;2023-04-21T13:01:19;9.40;;;5.80;;
22973;SDS011;11653;50.848;4.584;2023-04-21T13:03:46;9.27;;;6.30;;
22973;SDS011;11653;50.848;4.584;2023-04-21T13:06:11;12.20;;;8.37;;
22973;SDS011;11653;50.848;4.584;2023-04-21T13:08:37;11.40;;;8.20;;
22973;SDS011;11653;50.848;4.584;2023-04-21T13:11:03;9.03;;;7.67;;
22973;SDS011;11653;50.848;4.584;2023-04-21T13:13:29;9.57;;;7.83;;
22973;SDS011;11653;50.848;4.584;2023-04-21T13:15:55;9.80;;;7.23;;
22973;SDS011;11653;50.848;4.584;2023-04-21T13:18:21;10.43;;;7.57;;
22973;SDS011;11653;50.848;4.584;2023-04-21T13:20:46;7.90;;;6.60;;
22973;SDS011;11653;50.848;4.584;2023-04-21T13:23:12;11.00;;;7.17;;
22973;SDS011;11653;50.848;4.584;2023-04-21T13:25:39;10.10;;;7.63;;
22973;SDS011;11653;50.848;4.584;2023-04-21T13:28:05;9.83;;;7.30;;
22973;SDS011;11653;50.848;4.584;2023-04-21T13:30:32;10.47;;;7.57;;
22973;SDS011;11653;50.848;4.584;2023-04-21T13:32:58;9.67;;;7.63;;
22973;SDS011;11653;50.848;4.584;2023-04-21T13:35:24;9.57;;;7.17;;
22973;SDS011;11653;50.848;4.584;2023-04-21T13:37:50;10.63;;;7.43;;
22973;SDS011;11653;50.848;4.584;2023-04-21T13:40:15;9.03;;;6.37;;
22973;SDS011;11653;50.848;4.584;2023-04-21T13:42:41;8.73;;;7.00;;
22973;SDS011;11653;50.848;4.584;2023-04-21T13:45:07;11.47;;;6.57;;
22973;SDS011;11653;50.848;4.584;2023-04-21T13:47:33;8.40;;;6.50;;
22973;SDS011;11653;50.848;4.584;2023-04-21T13:49:59;8.47;;;6.30;;
22973;SDS011;11653;50.848;4.584;2023-04-21T13:52:25;11.10;;;6.97;;
22973;SDS011;11653;50.848;4.584;2023-04-21T13:54:51;8.77;;;6.37;;
22973;SDS011;11653;50.848;4.584;2023-04-21T13:57:18;7.20;;;6.23;;
22973;SDS011;11653;50.848;4.584;2023-04-21T13:59:44;9.33;;;6.40;;
22973;SDS011;11653;50.848;4.584;2023-04-21T14:02:10;9.03;;;5.80;;
22973;SDS011;11653;50.848;4.584;2023-04-21T14:04:35;7.03;;;6.00;;
22973;SDS011;11653;50.848;4.584;2023-04-21T14:07:02;9.60;;;6.80;;
22973;SDS011;11653;50.848;4.584;2023-04-21T14:09:28;8.30;;;6.10;;
22973;SDS011;11653;50.848;4.584;2023-04-21T14:11:54;8.90;;;6.00;;
22973;SDS011;11653;50.848;4.584;2023-04-21T14:14:19;8.80;;;6.63;;
22973;SDS011;11653;50.848;4.584;2023-04-21T14:16:45;9.70;;;6.60;;
22973;SDS011;11653;50.848;4.584;2023-04-21T14:19:15;7.53;;;5.40;;
22973;SDS011;11653;50.848;4.584;2023-04-21T14:21:41;8.57;;;5.63;;
22973;SDS011;11653;50.848;4.584;2023-04-21T14:24:07;10.90;;;6.00;;
22973;SDS011;11653;50.848;4.584;2023-04-21T14:26:34;11.40;;;6.80;;
22973;SDS011;11653;50.848;4.584;2023-04-21T14:29:00;10.47;;;6.10;;
22973;SDS011;11653;50.848;4.584;2023-04-21T14:31:26;7.33;;;5.63;;
22973;SDS011;11653;50.848;4.584;2023-04-21T14:33:52;8.37;;;5.93;;